Tiempo atmosférico en la estación meteorológica de Nuñomoral, Cáceres (475 m.)



Fecha
DESCASC
Temp. máxima en grados centígrados (hora)
DESCASC
Temp. mínima en grados centígrados (hora)
DESCASC
Temp. media en grados centígrados
DESCASC
Racha de viento máxima en m/sg (hora)
DESCASC
Velocidad máxima media en intervalos de 10 minutos(hora)
DESCASC
Precipitaciones diarias en mm
DESCASC
Precipitaciones de 00:00 a 06:00 en mm
DESCASC
Precipitaciones de 06:00 a 12:00 en mm
DESCASC
Precipitaciones de 12:00 a 18:00 en mm
DESCASC
Precipitaciones de 18:00 a 24:00 en mm
DESCASC
24-09-2020 22.5 (17:30) 13.3 (23:50) 17.9 11.39 (17:50) 5.28 (17:50) 0.2 0.2 0 0 0
23-09-2020 22.2 (16:50) 15.4 (00:00) 18.8 10.28 (18:10) 4.17 (17:10) 9.6 4.6 0.4 0 4.6
22-09-2020 24.4 (15:10) 10.2 (00:00) 17.3 7.22 (11:20) 3.89 (11:50) 0 0 0 0 0
21-09-2020 24.5 (17:30) 8.9 (00:00) 16.7 6.67 (16:00) 3.33 (17:40) 0 0 0 0 0
20-09-2020 22.2 (19:20) 14.2 (00:00) 18.2 6.11 (17:30) 3.33 (12:50) 3.4 1.8 1.6 0 0
19-09-2020 19.5 (15:10) 15.3 (00:00) 17.4 13.06 (03:30) 5.28 (03:20) 28.4 25 0.2 0.2 3
18-09-2020 21.3 (14:40) 14.7 (00:00) 18 11.11 (14:30) 5.28 (15:00) 21 0.4 0 1.2 19.4
17-09-2020 24.4 (12:50) 15.7 (00:00) 20 17.22 (19:00) 5.83 (19:00) 15.6 0 0.6 0.2 14.8
16-09-2020 29.6 (16:20) 9.5 (00:00) 19.6 8.61 (16:10) 3.61 (14:00) 0 0 0 0 0
15-09-2020 28.1 (16:30) 12.6 (00:00) 20.4 11.67 (17:00) 5.56 (16:00) 0 0 0 0 0
14-09-2020 29.3 (16:00) 16 (00:00) 22.6 10.28 (15:10) 5 (16:00) 0 0 0 0 0
13-09-2020 33.3 (18:10) 12.3 (00:00) 22.8 9.17 (16:30) 4.17 (15:20) 0 0 0 0 0
12-09-2020 34.5 (16:30) 11.1 (00:00) 22.8 6.67 (18:20) 3.61 (15:40) 0 0 0 0 0
11-09-2020 33.8 (16:10) 9.8 (00:00) 21.8 7.5 (15:30) 3.33 (15:30) 0 0 0 0 0
10-09-2020 33.4 (16:00) 8.4 (00:00) 20.9 6.94 (19:10) 4.17 (18:30) 0 0 0 0 0
09-09-2020 31.7 (16:40) 7.7 (00:00) 19.7 7.22 (18:50) 3.89 (12:00) 0 0 0 0 0
08-09-2020 30.5 (17:30) 6.8 (00:00) 18.7 6.11 (17:00) 3.61 (17:00) 0 0 0 0 0
07-09-2020 29.1 (17:10) 11.4 (08:10) 20.3 9.44 (16:20) 6.39 (18:50) 0 0 0 0 0
06-09-2020 35.1 (18:00) 12.8 (00:00) 23.9 7.78 (19:10) 4.72 (16:30) 0 0 0 0 0
05-09-2020 35.2 (15:30) 12.8 (00:00) 24 8.06 (16:30) 4.17 (16:30) 0 0 0 0 0
04-09-2020 34.9 (18:00) 10.1 (00:00) 22.5 7.22 (16:10) 3.61 (13:10) 0 0 0 0 0
03-09-2020 34.2 (16:40) 9.1 (00:00) 21.7 7.78 (13:20) 3.61 (18:50) 0 0 0 0 0
02-09-2020 32.9 (17:40) 9.7 (00:00) 21.3 9.72 (00:30) 5.56 (00:30) 0 0 0 0 0
01-09-2020 30.7 (16:20) 11.2 (00:00) 21 8.89 (15:40) 4.17 (15:20) 0 0 0 0 0
31-08-2020 28.1 (17:40) 4.9 (00:00) 16.5 7.78 (18:30) 4.17 (18:00) 0 0 0 0 0
30-08-2020 25.8 (16:30) 7.5 (00:00) 16.6 9.72 (18:10) 3.61 (18:10) 0 0 0 0 0
29-08-2020 24.8 (16:40) 12.9 (00:00) 18.8 11.67 (03:30) 6.39 (08:10) 0 0 0 0 0
28-08-2020 29.1 (17:40) 19.6 (00:00) 24.4 11.67 (12:30) 6.39 (13:00) 0 0 0 0 0

Gráficas

Temp. máximas Temp. mínimas Temp. medias Precipitaciones Rachas de viento máximas Velocidades máximas media en intervalos de 10 minutos

Datos horarios

Fecha y hora oficial Temperatura (ºC) Velocidad del viento (km/h) Dirección del viento Racha (km/h) Dirección de racha Precipitación (mm) Presión (hPa) Tendencia (hPa) Humedad (%)
2020-09-26 23:00:00 16.4 4 Noroeste 28 Sudoeste 0 -- -- 69
2020-09-26 22:00:00 16.8 9 Oeste 33 Oeste 0 -- -- 66
2020-09-26 21:00:00 17.6 17 Sudoeste 34 Sudoeste 0 -- -- 61
2020-09-26 20:00:00 18.2 16 Sudoeste 33 Sudoeste 0 -- -- 57
2020-09-26 19:00:00 19.8 14 Oeste 36 Sudoeste 0 -- -- 50
2020-09-26 18:00:00 19.9 16 Oeste 32 Oeste 0 -- -- 49
2020-09-26 17:00:00 20.9 10 Noroeste 40 Oeste 0 -- -- 48
2020-09-26 16:00:00 20.3 16 Sudoeste 37 Sudoeste 0 -- -- 43
2020-09-26 15:00:00 19.8 17 Oeste 38 Sudoeste 0 -- -- 46
2020-09-26 14:00:00 18.2 10 Sudoeste 32 Oeste 0 -- -- 50
2020-09-26 13:00:00 16.5 14 Sudoeste 28 Sudoeste 0 -- -- 56
2020-09-26 12:00:00 15 15 Sudoeste 28 Sudoeste 0 -- -- 55
2020-09-26 11:00:00 13.2 14 Sudoeste 30 Oeste 0 -- -- 62
2020-09-26 10:00:00 12.2 10 Oeste 23 Sudoeste 0 -- -- 65
2020-09-26 09:00:00 8 5 Noroeste 18 Oeste 0 -- -- 84
2020-09-26 08:00:00 7.5 6 Norte 16 Noroeste 0 -- -- 84
2020-09-26 07:00:00 8.2 4 Nordeste 12 Oeste 0 -- -- 81
2020-09-26 06:00:00 8.3 4 Nordeste 10 Nordeste 0 -- -- 80
2020-09-26 05:00:00 8.9 3 Norte 9 Nordeste 0 -- -- 77
2020-09-26 04:00:00 10.1 4 Norte 15 Oeste 0 -- -- 71
2020-09-26 03:00:00 12.6 8 Oeste 22 Oeste 0 -- -- 59
2020-09-26 02:00:00 13.2 12 Sudoeste 21 Sudoeste 0 -- -- 56
2020-09-26 01:00:00 13.7 10 Oeste 22 Oeste 0 -- -- 54
2020-09-26 00:00:00 14 8 Oeste 23 Oeste 0 -- -- 55
2020-09-25 23:00:00 14.4 7 Oeste 19 Noroeste 0 -- -- 54
2020-09-25 22:00:00 15 7 Oeste 19 Oeste 0 -- -- 50
2020-09-25 21:00:00 15.9 3 Este 23 Nordeste 0 -- -- 49
2020-09-25 20:00:00 17.2 8 Oeste 30 Oeste 0 -- -- 44
2020-09-25 19:00:00 19 6 Noroeste 32 Norte 0 -- -- 39
2020-09-25 18:00:00 18.8 13 Norte 44 Nordeste 0 -- -- 39
2020-09-25 17:00:00 18.9 12 Norte 31 Oeste 0 -- -- 39
2020-09-25 16:00:00 19.1 8 Noroeste 32 Nordeste 0 -- -- 40
2020-09-25 15:00:00 18 12 Noroeste 35 Norte 0 -- -- 44
2020-09-25 14:00:00 17.2 13 Norte 35 Norte 0 -- -- 43
2020-09-25 13:00:00 16.6 11 Norte 33 Norte 0 -- -- 47
2020-09-25 12:00:00 15.7 17 Norte 36 Oeste 0 -- -- 48
2020-09-25 11:00:00 14.5 12 Noroeste 34 Nordeste 0 -- -- 52
2020-09-25 10:00:00 13.4 7 Nordeste 19 Nordeste 0 -- -- 62
2020-09-25 09:00:00 12.3 9 Noroeste 23 Oeste 0 -- -- 66
2020-09-25 08:00:00 12.4 8 Sudoeste 21 Oeste 0 -- -- 68
2020-09-25 07:00:00 13.1 9 Oeste 31 Sudoeste 0 -- -- 69
2020-09-25 06:00:00 13.5 7 Sudoeste 26 Oeste 0 -- -- 69
2020-09-25 05:00:00 13.8 7 Oeste 34 Oeste 0 -- -- 70
2020-09-25 04:00:00 14.1 9 Norte 37 Oeste 0 -- -- 69
2020-09-25 03:00:00 14.1 9 Sur 31 Sudoeste 0 -- -- 70
2020-09-25 02:00:00 14.3 12 Sudoeste 25 Sur 0 -- -- 69
2020-09-25 01:00:00 13.9 3 Este 16 Sur 0 -- -- 71
2020-09-25 00:00:00 13.3 2 Noroeste 16 Noroeste 0 -- -- 75
2020-09-24 23:00:00 13.8 3 Norte 16 Sudoeste 0 -- -- 70
2020-09-24 22:00:00 16.1 6 Noroeste 21 Noroeste 0 -- -- 60
2020-09-24 21:00:00 17.3 6 Oeste 23 Noroeste 0 -- -- 55
2020-09-24 20:00:00 19.2 7 Noroeste 28 Oeste 0 -- -- 50
2020-09-24 19:00:00 21.2 13 Oeste 32 Oeste 0 -- -- 43
2020-09-24 18:00:00 22.2 12 Oeste 41 Sudoeste 0 -- -- 40
2020-09-24 17:00:00 21.9 7 Oeste 23 Oeste 0 -- -- 47
2020-09-24 16:00:00 22 6 Noroeste 27 Oeste 0 -- -- 53
2020-09-24 15:00:00 21.3 12 Noroeste 25 Norte 0 -- -- 55
2020-09-24 14:00:00 20 11 Noroeste 24 Noroeste 0 -- -- 63
2020-09-24 13:00:00 18.7 7 Sudoeste 16 Noroeste 0 -- -- 73
2020-09-24 12:00:00 17.9 3 Sudoeste 9 Sudoeste 0 -- -- 82
2020-09-24 11:00:00 17.1 3 Este 6 Este 0 -- -- 95
2020-09-24 10:00:00 16.2 2 Oeste 6 Nordeste 0 -- -- 97
2020-09-24 09:00:00 15.8 2 Oeste 5 Oeste 0 -- -- 97
2020-09-24 08:00:00 15.7 0 Calma 3 Oeste 0 -- -- 96
2020-09-24 07:00:00 16 0 Calma 5 Sur 0 -- -- 96
2020-09-24 06:00:00 16 0 Calma 5 Noroeste 0.2 -- -- 96
2020-09-24 05:00:00 16 0 Calma 7 Este 0 -- -- 96
2020-09-24 04:00:00 16 0 Calma 3 Norte 0 -- -- 96
2020-09-24 03:00:00 16 0 Calma 4 Norte 0 -- -- 96
2020-09-24 02:00:00 15.9 0 Calma 4 Noroeste 0 -- -- 96
2020-09-24 01:00:00 15.9 0 Calma 6 Oeste 0 -- -- 95
2020-09-24 00:00:00 15.8 0 Calma 4 Nordeste 0 -- -- 95
2020-09-23 23:00:00 16 0 Calma 9 Sudoeste 0 -- -- 94
2020-09-23 22:00:00 16.5 3 Noroeste 6 Sudoeste 0 -- -- 94
2020-09-23 21:00:00 17.1 0 Calma 2 Sur 0 -- -- 92
2020-09-23 20:00:00 17.7 0 Calma 11 Oeste 0.6 -- -- 92
2020-09-23 19:00:00 17.7 5 Oeste 37 Oeste 4 -- -- 89
2020-09-23 18:00:00 21.5 8 Oeste 29 Oeste 0 -- -- 68
2020-09-23 17:00:00 22 14 Oeste 25 Oeste 0 -- -- 64
2020-09-23 16:00:00 21.7 5 Este 15 Este 0 -- -- 69
2020-09-23 15:00:00 19.4 3 Noroeste 10 Este 0 -- -- 82
2020-09-23 14:00:00 18.4 5 Este 10 Este 0 -- -- 87
2020-09-23 13:00:00 17.6 4 Norte 14 Norte 0 -- -- 88
2020-09-23 12:00:00 17.4 0 Calma 9 Este 0.4 -- -- 88
2020-09-23 11:00:00 17 4 Este 9 Este 0 -- -- 90
2020-09-23 10:00:00 16.2 0 Calma 5 Sudoeste 0 -- -- 95
2020-09-23 09:00:00 15.6 0 Calma 3 Sudeste 0 -- -- 95
2020-09-23 08:00:00 15.6 0 Calma 3 Este 0 -- -- 94
2020-09-23 07:00:00 15.7 0 Calma 5 Oeste 0 -- -- 95
2020-09-23 06:00:00 15.4 0 Calma 2 Nordeste 0 -- -- 94
2020-09-23 05:00:00 15.8 0 Calma 4 Oeste 0 -- -- 94
2020-09-23 04:00:00 15.8 0 Calma 4 Sudeste 4.6 -- -- 93
2020-09-23 03:00:00 15.8 0 Calma 4 Este 0 -- -- 92
2020-09-23 02:00:00 15.8 0 Calma 3 Nordeste 0 -- -- 89
2020-09-23 01:00:00 15.6 0 Calma 5 Sudeste 0 -- -- 88
2020-09-23 00:00:00 15.8 2 Noroeste 5 Norte 0 -- -- 85
2020-09-22 23:00:00 16.3 0 Calma 4 Nordeste 0 -- -- 83
2020-09-22 22:00:00 17.4 0 Calma 3 Noroeste 0 -- -- 78
2020-09-22 21:00:00 19 0 Calma 8 Norte 0 -- -- 71
2020-09-22 20:00:00 21.9 2 Noroeste 20 Oeste 0 -- -- 61
2020-09-22 19:00:00 23.1 10 Sudoeste 22 Sudoeste 0 -- -- 53
2020-09-22 18:00:00 23.5 8 Sudoeste 19 Sudoeste 0 -- -- 52
2020-09-22 17:00:00 23.5 9 Este 22 Este 0 -- -- 50
2020-09-22 16:00:00 23.3 10 Este 21 Este 0 -- -- 53
2020-09-22 15:00:00 24 9 Sudeste 19 Este 0 -- -- 52
2020-09-22 14:00:00 22.9 6 Sudeste 13 Sudeste 0 -- -- 52
2020-09-22 13:00:00 21.3 8 Sudoeste 18 Oeste 0 -- -- 58
2020-09-22 12:00:00 20 8 Noroeste 26 Oeste 0 -- -- 62
2020-09-22 11:00:00 17.5 5 Este 10 Este 0 -- -- 77
2020-09-22 10:00:00 13 0 Calma 4 Este 0 -- -- 96
2020-09-22 09:00:00 10.4 0 Calma 6 Norte 0 -- -- 95
2020-09-22 08:00:00 10.8 3 Norte 6 Norte 0 -- -- 95
2020-09-22 07:00:00 10.6 3 Norte 5 Norte 0 -- -- 95
2020-09-22 06:00:00 10.9 3 Norte 5 Norte 0 -- -- 94
2020-09-22 05:00:00 11.4 3 Norte 8 Norte 0 -- -- 93
2020-09-22 04:00:00 11.8 3 Norte 8 Norte 0 -- -- 92
2020-09-22 03:00:00 12.5 3 Norte 11 Sudoeste 0 -- -- 88
2020-09-22 02:00:00 13.1 7 Oeste 10 Oeste 0 -- -- 89
2020-09-22 01:00:00 12.5 2 Noroeste 8 Norte 0 -- -- 88
2020-09-22 00:00:00 12.9 4 Norte 8 Oeste 0 -- -- 86
2020-09-21 23:00:00 13.8 4 Noroeste 8 Norte 0 -- -- 83
2020-09-21 22:00:00 15.1 4 Noroeste 8 Oeste 0 -- -- 77
2020-09-21 21:00:00 17.2 2 Noroeste 6 Noroeste 0 -- -- 69
2020-09-21 20:00:00 21 4 Noroeste 18 Sudoeste 0 -- -- 53
2020-09-21 19:00:00 23.6 7 Oeste 18 Oeste 0 -- -- 41
2020-09-21 18:00:00 23.9 9 Sudoeste 22 Noroeste 0 -- -- 39
2020-09-21 17:00:00 24.1 9 Noroeste 20 Noroeste 0 -- -- 40
2020-09-21 16:00:00 23.5 11 Oeste 24 Sudoeste 0 -- -- 42
2020-09-21 15:00:00 22.9 9 Oeste 18 Sudoeste 0 -- -- 45
2020-09-21 14:00:00 22.3 6 Sudoeste 15 Sudoeste 0 -- -- 49
2020-09-21 13:00:00 20.6 10 Sudoeste 18 Oeste 0 -- -- 51
2020-09-21 12:00:00 19 8 Sudoeste 17 Oeste 0 -- -- 62
2020-09-21 11:00:00 15.1 5 Este 8 Este 0 -- -- 84
2020-09-21 10:00:00 11.7 0 Calma 4 Este 0 -- -- 97
2020-09-21 09:00:00 9.3 0 Calma 2 Sudeste 0 -- -- 97
2020-09-21 08:00:00 9.2 0 Calma 4 Norte 0 -- -- 95
2020-09-21 07:00:00 9.9 2 Norte 6 Norte 0 -- -- 95
2020-09-21 06:00:00 10.3 3 Norte 7 Norte 0 -- -- 95
2020-09-21 05:00:00 11 3 Noroeste 8 Oeste 0 -- -- 94
2020-09-21 04:00:00 11.8 6 Oeste 10 Oeste 0 -- -- 93
2020-09-21 03:00:00 12 3 Noroeste 8 Oeste 0 -- -- 92
2020-09-21 02:00:00 12.7 0 Calma 6 Norte 0 -- -- 92
2020-09-21 01:00:00 13.6 0 Calma 14 Oeste 0 -- -- 90
2020-09-21 00:00:00 14.3 5 Noroeste 13 Oeste 0 -- -- 88
2020-09-20 23:00:00 14.2 3 Noroeste 14 Oeste 0 -- -- 88
2020-09-20 22:00:00 15.1 6 Oeste 10 Sudoeste 0 -- -- 86
2020-09-20 21:00:00 16.5 3 Noroeste 8 Norte 0 -- -- 81
2020-09-20 20:00:00 20.1 0 Calma 9 Noroeste 0 -- -- 72
2020-09-20 19:00:00 22 2 Nordeste 14 Este 0 -- -- 70
2020-09-20 18:00:00 21.6 5 Sudeste 22 Este 0 -- -- 72
2020-09-20 17:00:00 21.9 4 Nordeste 17 Este 0 -- -- 71
2020-09-20 16:00:00 21 6 Norte 15 Norte 0 -- -- 75
2020-09-20 15:00:00 22 4 Noroeste 19 Sudeste 0 -- -- 66
2020-09-20 14:00:00 20.2 4 Norte 18 Este 0 -- -- 77
2020-09-20 13:00:00 18.2 9 Este 17 Este 0 -- -- 87
2020-09-20 12:00:00 17.6 6 Sur 11 Este 0 -- -- 90
2020-09-20 11:00:00 16.7 3 Sudeste 8 Este 0.2 -- -- 94
2020-09-20 10:00:00 16.6 0 Calma 4 Sudeste 0 -- -- 97
2020-09-20 09:00:00 16.1 0 Calma 6 Este 0 -- -- 97
2020-09-20 08:00:00 16 5 Este 10 Nordeste 0.4 -- -- 96
2020-09-20 07:00:00 16.1 0 Calma 13 Nordeste 1 -- -- 96
2020-09-20 06:00:00 16.1 4 Nordeste 11 Noroeste 0.4 -- -- 96
2020-09-20 05:00:00 16 4 Nordeste 10 Este 0.6 -- -- 96
2020-09-20 04:00:00 15.9 2 Nordeste 6 Nordeste 0.4 -- -- 96
2020-09-20 03:00:00 15.9 2 Nordeste 4 Norte 0.2 -- -- 96
2020-09-20 02:00:00 15.9 0 Calma 5 Sudeste 0 -- -- 96
2020-09-20 01:00:00 15.8 2 Este 5 Norte 0.2 -- -- 95
2020-09-20 00:00:00 15.9 4 Norte 9 Nordeste 0.2 -- -- 95
2020-09-19 23:00:00 15.9 3 Nordeste 7 Este 0 -- -- 95
2020-09-19 22:00:00 15.9 0 Calma 5 Este 1 -- -- 95
2020-09-19 21:00:00 16.1 4 Norte 9 Nordeste 0.2 -- -- 94
2020-09-19 20:00:00 16.3 0 Calma 6 Este 0 -- -- 92
2020-09-19 19:00:00 16.7 3 Este 9 Nordeste 1.6 -- -- 89
2020-09-19 18:00:00 17.3 3 Nordeste 8 Este 0 -- -- 85
2020-09-19 17:00:00 17.9 4 Oeste 18 Oeste 0.2 -- -- 80
2020-09-19 16:00:00 19.3 6 Oeste 21 Sur 0 -- -- 67
2020-09-19 15:00:00 19.2 8 Sur 24 Sur 0 -- -- 70
2020-09-19 14:00:00 19 8 Sudoeste 17 Sudoeste 0 -- -- 73
2020-09-19 13:00:00 18.8 4 Sur 12 Sudoeste 0 -- -- 73
2020-09-19 12:00:00 17.9 3 Este 11 Sudeste 0 -- -- 83
2020-09-19 11:00:00 17 3 Este 6 Este 0 -- -- 91
2020-09-19 10:00:00 15.9 0 Calma 5 Nordeste 0 -- -- 96
2020-09-19 09:00:00 15.4 2 Noroeste 5 Norte 0 -- -- 96
2020-09-19 08:00:00 15.3 0 Calma 6 Nordeste 0 -- -- 95
2020-09-19 07:00:00 15.4 0 Calma 11 Norte 0.2 -- -- 94
2020-09-19 06:00:00 15.9 5 Noroeste 23 Sudoeste 0 -- -- 90
2020-09-19 05:00:00 16.3 5 Sur 31 Sudoeste 0.8 -- -- 87
2020-09-19 04:00:00 16.4 8 Sudoeste 47 Sur 5.2 -- -- 87
2020-09-19 03:00:00 15.6 7 Sur 37 Sudeste 11.2 -- -- 93
2020-09-19 02:00:00 16.3 7 Sudoeste 39 Sudoeste 0.6 -- -- 86
2020-09-19 01:00:00 16.4 12 Sur 27 Sudoeste 7.2 -- -- 87
2020-09-19 00:00:00 15.8 10 Este 29 Este 8.8 -- -- 93
2020-09-18 23:00:00 15.5 10 Este 26 Este 2.4 -- -- 92
2020-09-18 22:00:00 15.4 3 Este 29 Este 6.4 -- -- 93
2020-09-18 21:00:00 16.3 9 Este 30 Este 0.8 -- -- 84
2020-09-18 20:00:00 17.1 6 Este 34 Este 1 -- -- 80
2020-09-18 19:00:00 19.5 12 Este 30 Este 0 -- -- 63
2020-09-18 18:00:00 19.6 5 Sudeste 22 Sudeste 0 -- -- 67
2020-09-18 17:00:00 18.8 12 Este 26 Este 0.4 -- -- 75
2020-09-18 16:00:00 17.9 4 Nordeste 36 Este 0.8 -- -- 83
2020-09-18 15:00:00 20.5 19 Este 40 Este 0 -- -- 61
2020-09-18 14:00:00 20.5 9 Este 38 Este 0 -- -- 60
2020-09-18 13:00:00 19.2 10 Este 27 Este 0 -- -- 66
2020-09-18 12:00:00 18.2 6 Sur 25 Este 0 -- -- 71
2020-09-18 11:00:00 17.3 3 Norte 19 Este 0 -- -- 79
2020-09-18 10:00:00 16.4 3 Sur 7 Este 0 -- -- 93
2020-09-18 09:00:00 15.3 0 Calma 8 Nordeste 0 -- -- 97
2020-09-18 08:00:00 14.7 2 Nordeste 5 Nordeste 0 -- -- 96
2020-09-18 07:00:00 15 0 Calma 9 Norte 0 -- -- 95
2020-09-18 06:00:00 15.7 0 Calma 13 Este 0.2 -- -- 96
2020-09-18 05:00:00 15.4 3 Este 7 Este 0.2 -- -- 97
2020-09-18 04:00:00 15.1 2 Este 4 Sur 0 -- -- 96
2020-09-18 03:00:00 15.1 2 Sur 4 Sudoeste 0 -- -- 96
2020-09-18 02:00:00 15.1 0 Calma 13 Norte 0 -- -- 95
2020-09-18 01:00:00 15.4 5 Nordeste 10 Norte 0 -- -- 95
2020-09-18 00:00:00 15.9 3 Nordeste 9 Nordeste 0 -- -- 95
2020-09-17 23:00:00 16.2 2 Nordeste 6 Norte 0.2 -- -- 95
2020-09-17 22:00:00 16.7 3 Este 15 Oeste 0 -- -- 94
2020-09-17 21:00:00 16.7 3 Oeste 19 Noroeste 0 -- -- 94
2020-09-17 20:00:00 16.9 4 Norte 44 Oeste 7.4 -- -- 93
2020-09-17 19:00:00 20.6 21 Oeste 62 Oeste 7.2 -- -- 77
2020-09-17 18:00:00 23.4 16 Este 31 Este 0 -- -- 59
2020-09-17 17:00:00 23.1 6 Sudeste 32 Este 0 -- -- 62
2020-09-17 16:00:00 22.8 16 Este 40 Sur 0 -- -- 62
2020-09-17 15:00:00 23.1 16 Sudeste 37 Este 0 -- -- 59
2020-09-17 14:00:00 23.6 8 Este 39 Este 0 -- -- 55
2020-09-17 13:00:00 24.2 15 Este 35 Este 0.2 -- -- 54
2020-09-17 12:00:00 23 10 Sudeste 30 Este 0 -- -- 59
2020-09-17 11:00:00 22.4 8 Sudeste 36 Sudeste 0 -- -- 59
2020-09-17 10:00:00 18.8 3 Oeste 10 Sudeste 0 -- -- 84
2020-09-17 09:00:00 16.7 0 Calma 4 Sur 0 -- -- 92
2020-09-17 08:00:00 16.6 2 Sur 12 Este 0 -- -- 89
2020-09-17 07:00:00 16.3 3 Norte 9 Norte 0.6 -- -- 86
2020-09-17 06:00:00 16.4 2 Este 6 Este 0 -- -- 74
2020-09-17 05:00:00 16.3 2 Este 5 Sudeste 0 -- -- 74
2020-09-17 04:00:00 15.7 2 Nordeste 5 Norte 0 -- -- 75
2020-09-17 03:00:00 17 3 Norte 7 Norte 0 -- -- 69
2020-09-17 02:00:00 18 0 Calma 6 Noroeste 0 -- -- 68
2020-09-17 01:00:00 20 0 Calma 16 Sur 0 -- -- 62
2020-09-17 00:00:00 20.4 3 Nordeste 21 Sur 0 -- -- 66
2020-09-16 23:00:00 21 4 Este 14 Este 0 -- -- 65
2020-09-16 22:00:00 22.1 4 Noroeste 7 Noroeste 0 -- -- 52
2020-09-16 21:00:00 23.7 0 Calma 5 Noroeste 0 -- -- 48
2020-09-16 20:00:00 25.8 0 Calma 7 Sudoeste 0 -- -- 46
2020-09-16 19:00:00 27.7 3 Sudoeste 15 Este 0 -- -- 40
2020-09-16 18:00:00 28.7 6 Este 20 Sudeste 0 -- -- 34
2020-09-16 17:00:00 29.2 10 Este 31 Sudeste 0 -- -- 29
2020-09-16 16:00:00 29.3 10 Sur 26 Este 0 -- -- 32
2020-09-16 15:00:00 28.5 6 Este 25 Sudeste 0 -- -- 35
2020-09-16 14:00:00 28 13 Este 22 Este 0 -- -- 37
2020-09-16 13:00:00 24.7 6 Este 11 Este 0 -- -- 44
2020-09-16 12:00:00 21.5 5 Este 8 Este 0 -- -- 52
2020-09-16 11:00:00 18.6 0 Calma 6 Sudeste 0 -- -- 63
2020-09-16 10:00:00 14 0 Calma 4 Norte 0 -- -- 80
2020-09-16 09:00:00 10.1 0 Calma 2 Sudeste 0 -- -- 91
2020-09-16 08:00:00 9.6 0 Calma 4 Noroeste 0 -- -- 88
2020-09-16 07:00:00 10.3 3 Norte 4 Norte 0 -- -- 87
2020-09-16 06:00:00 10.4 0 Calma 3 Norte 0 -- -- 85
2020-09-16 05:00:00 11.1 2 Norte 4 Norte 0 -- -- 83
2020-09-16 04:00:00 11.7 2 Norte 4 Norte 0 -- -- 80
2020-09-16 03:00:00 12.8 3 Norte 5 Norte 0 -- -- 76
2020-09-16 02:00:00 13.3 3 Norte 7 Norte 0 -- -- 75
2020-09-16 01:00:00 14.6 2 Norte 6 Norte 0 -- -- 70
2020-09-16 00:00:00 15.8 3 Norte 6 Oeste 0 -- -- 66
2020-09-15 23:00:00 17.4 2 Noroeste 5 Norte 0 -- -- 60
2020-09-15 22:00:00 19.6 0 Calma 5 Norte 0 -- -- 56
2020-09-15 21:00:00 22.4 2 Noroeste 5 Sudoeste 0 -- -- 48
2020-09-15 20:00:00 26.2 2 Sudeste 18 Noroeste 0 -- -- 39
2020-09-15 19:00:00 27.4 8 Oeste 22 Oeste 0 -- -- 36
2020-09-15 18:00:00 27.7 5 Noroeste 36 Sudoeste 0 -- -- 36
2020-09-15 17:00:00 27.6 18 Oeste 42 Oeste 0 -- -- 38
2020-09-15 16:00:00 27.4 20 Oeste 35 Oeste 0 -- -- 39
2020-09-15 15:00:00 25.9 14 Sudoeste 32 Oeste 0 -- -- 44
2020-09-15 14:00:00 26.4 7 Sudoeste 33 Sudoeste 0 -- -- 44
2020-09-15 13:00:00 24.8 13 Oeste 27 Oeste 0 -- -- 48
2020-09-15 12:00:00 24 12 Este 21 Este 0 -- -- 51
2020-09-15 11:00:00 21.1 8 Este 13 Sudeste 0 -- -- 64
2020-09-15 10:00:00 15 0 Calma 2 Sudeste 0 -- -- 83
2020-09-15 09:00:00 12.9 0 Calma 3 Sudeste 0 -- -- 87
2020-09-15 08:00:00 12.9 0 Calma 2 Nordeste 0 -- -- 84
2020-09-15 07:00:00 13.2 0 Calma 4 Sudeste 0 -- -- 83
2020-09-15 06:00:00 14 0 Calma 3 Norte 0 -- -- 81
2020-09-15 05:00:00 14.6 0 Calma 2 Noroeste 0 -- -- 77
2020-09-15 04:00:00 15.5 0 Calma 2 Noroeste 0 -- -- 74
2020-09-15 03:00:00 16 0 Calma 4 Este 0 -- -- 70
2020-09-15 02:00:00 16.8 3 Este 6 Norte 0 -- -- 69
2020-09-15 01:00:00 17.9 0 Calma 5 Oeste 0 -- -- 64
2020-09-15 00:00:00 18.4 2 Norte 5 Norte 0 -- -- 61
2020-09-14 23:00:00 20.2 2 Noroeste 6 Noroeste 0 -- -- 57
2020-09-14 22:00:00 22.4 0 Calma 4 Noroeste 0 -- -- 51
2020-09-14 21:00:00 25.1 0 Calma 9 Oeste 0 -- -- 46
2020-09-14 20:00:00 27.5 9 Oeste 27 Sur 0 -- -- 39
2020-09-14 19:00:00 28.7 4 Sudoeste 28 Oeste 0 -- -- 39
2020-09-14 18:00:00 28.6 11 Este 23 Este 0 -- -- 37
2020-09-14 17:00:00 28.8 4 Sudeste 28 Sudoeste 0 -- -- 36
2020-09-14 16:00:00 29.3 18 Oeste 37 Sudoeste 0 -- -- 36
2020-09-14 15:00:00 28.3 10 Sudoeste 30 Este 0 -- -- 36
2020-09-14 14:00:00 26.8 13 Este 30 Este 0 -- -- 39
2020-09-14 13:00:00 25.8 4 Oeste 26 Este 0 -- -- 45
2020-09-14 12:00:00 25.6 11 Este 35 Sudeste 0 -- -- 47
2020-09-14 11:00:00 23.3 5 Sudeste 9 Sudeste 0 -- -- 55
2020-09-14 10:00:00 17.5 0 Calma 2 Noroeste 0 -- -- 70
2020-09-14 09:00:00 16.1 0 Calma 4 Norte 0 -- -- 71
2020-09-14 08:00:00 16.2 0 Calma 3 Norte 0 -- -- 69
2020-09-14 07:00:00 16.4 2 Sudeste 4 Sudeste 0 -- -- 68
2020-09-14 06:00:00 16.8 2 Norte 4 Noroeste 0 -- -- 64
2020-09-14 05:00:00 17.1 0 Calma 4 Sudeste 0 -- -- 61
2020-09-14 04:00:00 18.2 0 Calma 6 Oeste 0 -- -- 56
2020-09-14 03:00:00 19.9 5 Nordeste 16 Sudoeste 0 -- -- 51
2020-09-14 02:00:00 23.4 8 Sur 18 Sudoeste 0 -- -- 40
2020-09-14 01:00:00 18 3 Este 10 Norte 0 -- -- 57
2020-09-14 00:00:00 19.7 3 Noroeste 6 Noroeste 0 -- -- 50
2020-09-13 23:00:00 21.1 2 Norte 5 Norte 0 -- -- 49
2020-09-13 22:00:00 23.9 3 Noroeste 10 Norte 0 -- -- 41
2020-09-13 21:00:00 27.9 3 Sudeste 19 Sudeste 0 -- -- 33
2020-09-13 20:00:00 31.7 10 Este 27 Este 0 -- -- 26
2020-09-13 19:00:00 32.4 9 Sudeste 23 Este 0 -- -- 26
2020-09-13 18:00:00 32.8 4 Este 29 Este 0 -- -- 25
2020-09-13 17:00:00 31.6 9 Este 33 Este 0 -- -- 27
2020-09-13 16:00:00 32.1 6 Oeste 30 Oeste 0 -- -- 25
2020-09-13 15:00:00 32 3 Oeste 12 Este 0 -- -- 27
2020-09-13 14:00:00 31.2 8 Este 23 Este 0 -- -- 27
2020-09-13 13:00:00 30.5 9 Oeste 24 Oeste 0 -- -- 27
2020-09-13 12:00:00 28.9 7 Este 11 Este 0 -- -- 28
2020-09-13 11:00:00 23.7 4 Este 9 Este 0 -- -- 37
2020-09-13 10:00:00 17.2 0 Calma 4 Norte 0 -- -- 55
2020-09-13 09:00:00 12.7 0 Calma 5 Norte 0 -- -- 69
2020-09-13 08:00:00 12.4 0 Calma 5 Sudeste 0 -- -- 71
2020-09-13 07:00:00 13.1 3 Nordeste 8 Este 0 -- -- 67
2020-09-13 06:00:00 13.8 0 Calma 5 Norte 0 -- -- 68
2020-09-13 05:00:00 14.7 2 Este 6 Norte 0 -- -- 63
2020-09-13 04:00:00 15.5 4 Norte 6 Noroeste 0 -- -- 62
2020-09-13 03:00:00 16.2 3 Noroeste 6 Norte 0 -- -- 56
2020-09-13 02:00:00 16.5 2 Norte 6 Noroeste 0 -- -- 53
2020-09-13 01:00:00 18.1 3 Norte 7 Norte 0 -- -- 51
2020-09-13 00:00:00 19.8 4 Noroeste 7 Noroeste 0 -- -- 43
2020-09-12 23:00:00 21.2 3 Norte 6 Norte 0 -- -- 45
2020-09-12 22:00:00 24 5 Noroeste 9 Oeste 0 -- -- 35
2020-09-12 21:00:00 27.1 0 Calma 12 Oeste 0 -- -- 31
2020-09-12 20:00:00 31.9 7 Oeste 16 Oeste 0 -- -- 26
2020-09-12 19:00:00 32.9 4 Sudoeste 24 Oeste 0 -- -- 23
2020-09-12 18:00:00 33.7 7 Sudoeste 22 Oeste 0 -- -- 21
2020-09-12 17:00:00 34.4 6 Sudoeste 22 Oeste 0 -- -- 21
2020-09-12 16:00:00 34.4 5 Sur 23 Este 0 -- -- 21
2020-09-12 15:00:00 33.7 10 Este 23 Sudeste 0 -- -- 21
2020-09-12 14:00:00 33.6 12 Sudeste 23 Este 0 -- -- 22
2020-09-12 13:00:00 32.3 8 Nordeste 17 Este 0 -- -- 23
2020-09-12 12:00:00 29.1 3 Sudeste 8 Sudeste 0 -- -- 29
2020-09-12 11:00:00 24 5 Este 9 Este 0 -- -- 37
2020-09-12 10:00:00 16.4 0 Calma 2 Este 0 -- -- 59
2020-09-12 09:00:00 11.7 0 Calma 4 Norte 0 -- -- 75
2020-09-12 08:00:00 11.1 0 Calma 3 Norte 0 -- -- 75
2020-09-12 07:00:00 11.7 0 Calma 4 Norte 0 -- -- 72
2020-09-12 06:00:00 12.3 0 Calma 3 Noroeste 0 -- -- 68
2020-09-12 05:00:00 13.2 0 Calma 4 Norte 0 -- -- 65
2020-09-12 04:00:00 14.3 3 Nordeste 6 Norte 0 -- -- 60
2020-09-12 03:00:00 16.2 4 Noroeste 12 Oeste 0 -- -- 50
2020-09-12 02:00:00 16.4 4 Noroeste 10 Norte 0 -- -- 49
2020-09-12 01:00:00 17.2 4 Norte 9 Norte 0 -- -- 48
2020-09-12 00:00:00 18.6 3 Norte 8 Noroeste 0 -- -- 45
2020-09-11 23:00:00 20.5 3 Noroeste 8 Norte 0 -- -- 41
2020-09-11 22:00:00 22.8 5 Oeste 8 Noroeste 0 -- -- 38
2020-09-11 21:00:00 25.8 3 Noroeste 12 Oeste 0 -- -- 33
2020-09-11 20:00:00 28.8 2 Oeste 13 Oeste 0 -- -- 29
2020-09-11 19:00:00 31.7 3 Oeste 21 Oeste 0 -- -- 23
2020-09-11 18:00:00 31.9 5 Sudeste 16 Oeste 0 -- -- 25
2020-09-11 17:00:00 31.8 4 Sur 19 Sudoeste 0 -- -- 24
2020-09-11 16:00:00 33.5 9 Sur 27 Sudeste 0 -- -- 21
2020-09-11 15:00:00 32.4 6 Sur 22 Sudoeste 0 -- -- 24
2020-09-11 14:00:00 32.4 8 Sudeste 25 Sudoeste 0 -- -- 23
2020-09-11 13:00:00 31 9 Este 17 Este 0 -- -- 24
2020-09-11 12:00:00 27.1 9 Este 15 Sudeste 0 -- -- 29
2020-09-11 11:00:00 22.6 3 Sudeste 8 Sudeste 0 -- -- 39
2020-09-11 10:00:00 16.5 0 Calma 3 Sudeste 0 -- -- 58
2020-09-11 09:00:00 10.7 0 Calma 3 Norte 0 -- -- 74
2020-09-11 08:00:00 10 0 Calma 3 Norte 0 -- -- 76
2020-09-11 07:00:00 10.6 0 Calma 3 Norte 0 -- -- 72
2020-09-11 06:00:00 11.1 0 Calma 3 Este 0 -- -- 69
2020-09-11 05:00:00 11.9 3 Este 5 Noroeste 0 -- -- 67
2020-09-11 04:00:00 12.8 3 Noroeste 6 Norte 0 -- -- 63
2020-09-11 03:00:00 13.9 3 Norte 6 Norte 0 -- -- 57
2020-09-11 02:00:00 14.5 2 Norte 6 Norte 0 -- -- 54
2020-09-11 01:00:00 15.5 2 Norte 8 Norte 0 -- -- 54
2020-09-11 00:00:00 17.6 3 Norte 9 Norte 0 -- -- 46
2020-09-10 23:00:00 19.4 3 Noroeste 8 Noroeste 0 -- -- 41
2020-09-10 22:00:00 21.8 4 Noroeste 8 Oeste 0 -- -- 36
2020-09-10 21:00:00 25.6 3 Noroeste 6 Oeste 0 -- -- 31
2020-09-10 20:00:00 30.6 6 Nordeste 25 Sudeste 0 -- -- 23
2020-09-10 19:00:00 32.3 12 Sudeste 24 Sudeste 0 -- -- 21
2020-09-10 18:00:00 32.7 9 Sudeste 19 Este 0 -- -- 21
2020-09-10 17:00:00 32.8 5 Sudeste 23 Este 0 -- -- 22
2020-09-10 16:00:00 33.4 4 Este 20 Noroeste 0 -- -- 21
2020-09-10 15:00:00 32.3 10 Sudeste 19 Oeste 0 -- -- 23
2020-09-10 14:00:00 31.1 12 Sur 23 Sur 0 -- -- 23
2020-09-10 13:00:00 30.9 7 Sudeste 18 Este 0 -- -- 24
2020-09-10 12:00:00 27.4 4 Sudeste 9 Este 0 -- -- 29
2020-09-10 11:00:00 20.7 0 Calma 7 Sudeste 0 -- -- 42
2020-09-10 10:00:00 15.1 0 Calma 4 Norte 0 -- -- 59
2020-09-10 09:00:00 9.4 0 Calma 2 Noroeste 0 -- -- 74
2020-09-10 08:00:00 8.5 0 Calma 4 Norte 0 -- -- 78
2020-09-10 07:00:00 9.1 0 Calma 3 Noroeste 0 -- -- 75
2020-09-10 06:00:00 9.5 0 Calma 4 Este 0 -- -- 72
2020-09-10 05:00:00 10.3 0 Calma 4 Este 0 -- -- 66
2020-09-10 04:00:00 11 3 Nordeste 5 Norte 0 -- -- 66
2020-09-10 03:00:00 11.8 0 Calma 5 Norte 0 -- -- 65
2020-09-10 02:00:00 13.3 3 Norte 6 Noroeste 0 -- -- 55
2020-09-10 01:00:00 14.8 3 Norte 6 Norte 0 -- -- 50
2020-09-10 00:00:00 16.1 2 Noroeste 6 Norte 0 -- -- 49
2020-09-09 23:00:00 18.5 3 Norte 8 Norte 0 -- -- 43
2020-09-09 22:00:00 21 4 Noroeste 6 Noroeste 0 -- -- 39
2020-09-09 21:00:00 25 4 Noroeste 11 Norte 0 -- -- 32
2020-09-09 20:00:00 29.8 6 Oeste 17 Sudeste 0 -- -- 26
2020-09-09 19:00:00 31.1 7 Oeste 26 Oeste 0 -- -- 24
2020-09-09 18:00:00 31.1 10 Oeste 25 Oeste 0 -- -- 23
2020-09-09 17:00:00 31.4 10 Oeste 21 Oeste 0 -- -- 24
2020-09-09 16:00:00 31.1 12 Sudeste 26 Sudeste 0 -- -- 23
2020-09-09 15:00:00 30.8 8 Sudoeste 21 Sudeste 0 -- -- 23
2020-09-09 14:00:00 29.3 10 Este 23 Este 0 -- -- 25
2020-09-09 13:00:00 28.2 12 Este 20 Este 0 -- -- 26
2020-09-09 12:00:00 25.8 14 Este 20 Este 0 -- -- 31
2020-09-09 11:00:00 20.8 6 Este 11 Este 0 -- -- 43
2020-09-09 10:00:00 14.3 2 Este 6 Este 0 -- -- 65
2020-09-09 09:00:00 8.6 0 Calma 3 Este 0 -- -- 84
2020-09-09 08:00:00 7.8 3 Este 5 Norte 0 -- -- 82
2020-09-09 07:00:00 8.4 0 Calma 3 Norte 0 -- -- 81
2020-09-09 06:00:00 8.9 0 Calma 4 Norte 0 -- -- 78
2020-09-09 05:00:00 10 2 Norte 4 Norte 0 -- -- 74
2020-09-09 04:00:00 10.6 0 Calma 5 Norte 0 -- -- 73
2020-09-09 03:00:00 12.1 3 Norte 5 Noroeste 0 -- -- 68
2020-09-09 02:00:00 13.2 2 Noroeste 5 Norte 0 -- -- 65
2020-09-09 01:00:00 14.8 4 Norte 7 Norte 0 -- -- 61
2020-09-09 00:00:00 16.1 4 Norte 5 Norte 0 -- -- 54
2020-09-08 23:00:00 17.5 2 Noroeste 4 Oeste 0 -- -- 51
2020-09-08 22:00:00 20.8 2 Norte 11 Norte 0 -- -- 47
2020-09-08 21:00:00 24.6 6 Noroeste 21 Oeste 0 -- -- 34
2020-09-08 20:00:00 27 10 Oeste 21 Oeste 0 -- -- 30
2020-09-08 19:00:00 28.5 10 Sudoeste 19 Oeste 0 -- -- 24
2020-09-08 18:00:00 29.4 11 Sudeste 18 Sudeste 0 -- -- 22
2020-09-08 17:00:00 29.3 13 Este 22 Este 0 -- -- 22
2020-09-08 16:00:00 29.2 6 Sur 19 Este 0 -- -- 21
2020-09-08 15:00:00 27.4 9 Este 19 Sudeste 0 -- -- 24
2020-09-08 14:00:00 26 10 Este 19 Sudeste 0 -- -- 28
2020-09-08 13:00:00 24.3 8 Este 16 Este 0 -- -- 31
2020-09-08 12:00:00 21.7 5 Este 10 Este 0 -- -- 36
2020-09-08 11:00:00 17.8 3 Sudeste 6 Sudeste 0 -- -- 44
2020-09-08 10:00:00 13.2 0 Calma 4 Noroeste 0 -- -- 59
2020-09-08 09:00:00 7.9 3 Norte 5 Norte 0 -- -- 75
2020-09-08 08:00:00 7.1 0 Calma 5 Norte 0 -- -- 75
2020-09-08 07:00:00 8.4 3 Norte 6 Noroeste 0 -- -- 71
2020-09-08 06:00:00 9.2 2 Noroeste 5 Norte 0 -- -- 68
2020-09-08 05:00:00 10.8 2 Noroeste 5 Norte 0 -- -- 61
2020-09-08 04:00:00 12.4 3 Noroeste 7 Norte 0 -- -- 56
2020-09-08 03:00:00 13.4 3 Noroeste 8 Norte 0 -- -- 52
2020-09-08 02:00:00 15.9 5 Norte 13 Norte 0 -- -- 47
2020-09-08 01:00:00 19.2 5 Nordeste 17 Nordeste 0 -- -- 38
2020-09-08 00:00:00 18.4 4 Nordeste 18 Este 0 -- -- 41
2020-09-07 23:00:00 18 4 Noroeste 11 Noroeste 0 -- -- 43
2020-09-07 22:00:00 20.6 3 Noroeste 19 Este 0 -- -- 34
2020-09-07 21:00:00 23.8 4 Nordeste 18 Nordeste 0 -- -- 28
2020-09-07 20:00:00 26.6 11 Este 32 Sudeste 0 -- -- 24
2020-09-07 19:00:00 27.9 19 Este 34 Sudeste 0 -- -- 22
2020-09-07 18:00:00 28.9 18 Sudeste 31 Este 0 -- -- 23
2020-09-07 17:00:00 28.6 15 Este 34 Este 0 -- -- 23
2020-09-07 16:00:00 29 14 Sudeste 32 Este 0 -- -- 25
2020-09-07 15:00:00 28.6 14 Sudeste 31 Sudeste 0 -- -- 27
2020-09-07 14:00:00 27.4 15 Este 33 Este 0 -- -- 28
2020-09-07 13:00:00 27 15 Sudeste 28 Sudeste 0 -- -- 29
2020-09-07 12:00:00 23.5 5 Oeste 10 Oeste 0 -- -- 36
2020-09-07 11:00:00 19.8 2 Oeste 7 Sudoeste 0 -- -- 46
2020-09-07 10:00:00 16.6 2 Noroeste 5 Oeste 0 -- -- 56
2020-09-07 09:00:00 11.9 3 Noroeste 6 Noroeste 0 -- -- 73
2020-09-07 08:00:00 11.5 3 Norte 4 Norte 0 -- -- 75
2020-09-07 07:00:00 12.6 3 Norte 6 Noroeste 0 -- -- 72
2020-09-07 06:00:00 13.9 3 Noroeste 6 Noroeste 0 -- -- 69
2020-09-07 05:00:00 14.3 3 Noroeste 6 Oeste 0 -- -- 71
2020-09-07 04:00:00 14.9 3 Norte 5 Oeste 0 -- -- 69
2020-09-07 03:00:00 15.7 2 Norte 5 Norte 0 -- -- 65
2020-09-07 02:00:00 17.8 3 Norte 6 Norte 0 -- -- 58
2020-09-07 01:00:00 19.5 4 Noroeste 8 Norte 0 -- -- 54
2020-09-07 00:00:00 20.4 4 Norte 7 Norte 0 -- -- 51
2020-09-06 23:00:00 22.4 0 Calma 9 Norte 0 -- -- 43
2020-09-06 22:00:00 24.7 3 Noroeste 9 Norte 0 -- -- 38
2020-09-06 21:00:00 28.5 3 Norte 16 Oeste 0 -- -- 36
2020-09-06 20:00:00 32.9 5 Oeste 28 Noroeste 0 -- -- 24
2020-09-06 19:00:00 34 6 Norte 27 Noroeste 0 -- -- 24
2020-09-06 18:00:00 35.1 6 Noroeste 21 Nordeste 0 -- -- 24
2020-09-06 17:00:00 33.9 10 Noroeste 26 Oeste 0 -- -- 25
2020-09-06 16:00:00 34.2 11 Oeste 27 Oeste 0 -- -- 26
2020-09-06 15:00:00 33.4 5 Sudeste 21 Oeste 0 -- -- 26
2020-09-06 14:00:00 31.4 9 Este 20 Este 0 -- -- 31
2020-09-06 13:00:00 29.3 6 Este 15 Este 0 -- -- 36
2020-09-06 12:00:00 26.5 3 Sudeste 8 Sudeste 0 -- -- 41
2020-09-06 11:00:00 22.9 2 Sudeste 6 Sudeste 0 -- -- 49
2020-09-06 10:00:00 18.4 0 Calma 4 Norte 0 -- -- 61
2020-09-06 09:00:00 14 3 Noroeste 5 Noroeste 0 -- -- 73
2020-09-06 08:00:00 13 0 Calma 5 Norte 0 -- -- 74
2020-09-06 07:00:00 13.6 0 Calma 4 Noroeste 0 -- -- 69
2020-09-06 06:00:00 14.6 0 Calma 5 Norte 0 -- -- 65
2020-09-06 05:00:00 14.5 2 Noroeste 5 Norte 0 -- -- 67
2020-09-06 04:00:00 15.1 3 Nordeste 5 Norte 0 -- -- 63
2020-09-06 03:00:00 15.9 0 Calma 6 Este 0 -- -- 60
2020-09-06 02:00:00 17.4 4 Norte 8 Norte 0 -- -- 56
2020-09-06 01:00:00 18.5 3 Norte 7 Norte 0 -- -- 51
2020-09-06 00:00:00 20.1 3 Noroeste 6 Noroeste 0 -- -- 50
2020-09-05 23:00:00 22.5 3 Noroeste 6 Norte 0 -- -- 40
2020-09-05 22:00:00 25.2 3 Noroeste 9 Norte 0 -- -- 36
2020-09-05 21:00:00 29.9 5 Norte 21 Oeste 0 -- -- 28
2020-09-05 20:00:00 33.8 5 Sur 17 Oeste 0 -- -- 22
2020-09-05 19:00:00 35 5 Sur 26 Sudoeste 0 -- -- 22
2020-09-05 18:00:00 35.1 7 Sudoeste 23 Oeste 0 -- -- 22
2020-09-05 17:00:00 34.6 12 Sudoeste 29 Oeste 0 -- -- 22
2020-09-05 16:00:00 35 8 Oeste 27 Sudoeste 0 -- -- 22
2020-09-05 15:00:00 34.6 7 Sudeste 21 Oeste 0 -- -- 21
2020-09-05 14:00:00 33.6 11 Oeste 18 Este 0 -- -- 22
2020-09-05 13:00:00 32.7 9 Este 17 Sudeste 0 -- -- 24
2020-09-05 12:00:00 29.7 10 Este 17 Sudeste 0 -- -- 30
2020-09-05 11:00:00 25.8 6 Este 11 Este 0 -- -- 38
2020-09-05 10:00:00 19.2 0 Calma 3 Nordeste 0 -- -- 52
2020-09-05 09:00:00 13.7 0 Calma 5 Norte 0 -- -- 67
2020-09-05 08:00:00 13 2 Noroeste 3 Noroeste 0 -- -- 67
2020-09-05 07:00:00 13.9 0 Calma 4 Noroeste 0 -- -- 66
2020-09-05 06:00:00 14.9 0 Calma 6 Norte 0 -- -- 61
2020-09-05 05:00:00 16.9 3 Noroeste 9 Oeste 0 -- -- 55
2020-09-05 04:00:00 18.6 5 Noroeste 10 Norte 0 -- -- 50
2020-09-05 03:00:00 20.7 5 Oeste 15 Sudoeste 0 -- -- 45
2020-09-05 02:00:00 20.5 7 Oeste 14 Oeste 0 -- -- 45
2020-09-05 01:00:00 19.8 5 Noroeste 11 Norte 0 -- -- 44
2020-09-05 00:00:00 19.1 2 Nordeste 10 Nordeste 0 -- -- 46
2020-09-04 23:00:00 21.1 5 Norte 6 Norte 0 -- -- 40
2020-09-04 22:00:00 23.6 2 Noroeste 6 Noroeste 0 -- -- 40
2020-09-04 21:00:00 27.5 3 Noroeste 10 Oeste 0 -- -- 29
2020-09-04 20:00:00 32.9 6 Oeste 15 Sudoeste 0 -- -- 22
2020-09-04 19:00:00 33.8 12 Sudoeste 21 Sudoeste 0 -- -- 21
2020-09-04 18:00:00 34.9 6 Oeste 22 Sudeste 0 -- -- 21
2020-09-04 17:00:00 34.3 11 Sudeste 26 Este 0 -- -- 21
2020-09-04 16:00:00 34.1 8 Este 22 Sudeste 0 -- -- 21
2020-09-04 15:00:00 33.7 6 Sudeste 22 Sudoeste 0 -- -- 22
2020-09-04 14:00:00 33.2 11 Sudeste 24 Este 0 -- -- 23
2020-09-04 13:00:00 31.5 12 Este 24 Este 0 -- -- 25
2020-09-04 12:00:00 28.5 9 Este 16 Este 0 -- -- 29
2020-09-04 11:00:00 23.7 5 Sudeste 9 Sudeste 0 -- -- 35
2020-09-04 10:00:00 17 0 Calma 2 Sudoeste 0 -- -- 52
2020-09-04 09:00:00 11.5 0 Calma 4 Noroeste 0 -- -- 67
2020-09-04 08:00:00 10.2 0 Calma 2 Norte 0 -- -- 71
2020-09-04 07:00:00 10.9 2 Este 5 Noroeste 0 -- -- 68
2020-09-04 06:00:00 11.3 3 Noroeste 5 Este 0 -- -- 64
2020-09-04 05:00:00 12.3 2 Noroeste 4 Norte 0 -- -- 62
2020-09-04 04:00:00 12.9 0 Calma 4 Noroeste 0 -- -- 58
2020-09-04 03:00:00 13.7 0 Calma 4 Norte 0 -- -- 54
2020-09-04 02:00:00 15.3 2 Noroeste 5 Norte 0 -- -- 49
2020-09-04 01:00:00 16.4 3 Noroeste 6 Norte 0 -- -- 48
2020-09-04 00:00:00 18.3 3 Noroeste 6 Noroeste 0 -- -- 42
2020-09-03 23:00:00 20.4 2 Norte 5 Norte 0 -- -- 36
2020-09-03 22:00:00 23.1 0 Calma 8 Norte 0 -- -- 34
2020-09-03 21:00:00 27.3 5 Norte 14 Norte 0 -- -- 27
2020-09-03 20:00:00 32.7 6 Sudoeste 25 Oeste 0 -- -- 20
2020-09-03 19:00:00 33.5 10 Oeste 27 Oeste 0 -- -- 19
2020-09-03 18:00:00 34 11 Sudoeste 20 Oeste 0 -- -- 19
2020-09-03 17:00:00 33.9 11 Sudoeste 22 Oeste 0 -- -- 19
2020-09-03 16:00:00 33.9 4 Sur 21 Sudoeste 0 -- -- 19
2020-09-03 15:00:00 33.2 6 Noroeste 18 Sudoeste 0 -- -- 19
2020-09-03 14:00:00 32.6 6 Sudeste 28 Este 0 -- -- 21
2020-09-03 13:00:00 31.2 9 Este 17 Este 0 -- -- 21
2020-09-03 12:00:00 28.2 7 Este 12 Sudeste 0 -- -- 26
2020-09-03 11:00:00 23.7 4 Este 8 Este 0 -- -- 32
2020-09-03 10:00:00 16.8 0 Calma 4 Norte 0 -- -- 50
2020-09-03 09:00:00 10.5 3 Norte 5 Norte 0 -- -- 66
2020-09-03 08:00:00 9.1 0 Calma 3 Noroeste 0 -- -- 70
2020-09-03 07:00:00 10 0 Calma 4 Noroeste 0 -- -- 70
2020-09-03 06:00:00 10.8 3 Noroeste 4 Norte 0 -- -- 63
2020-09-03 05:00:00 11.7 0 Calma 6 Norte 0 -- -- 60
2020-09-03 04:00:00 12.5 3 Norte 5 Norte 0 -- -- 58
2020-09-03 03:00:00 12.9 3 Norte 5 Norte 0 -- -- 54
2020-09-03 02:00:00 14.6 3 Norte 9 Oeste 0 -- -- 47
2020-09-03 01:00:00 15.9 4 Norte 10 Sudoeste 0 -- -- 45
2020-09-03 00:00:00 17.4 3 Noroeste 9 Norte 0 -- -- 39
2020-09-02 23:00:00 19.2 4 Norte 10 Noroeste 0 -- -- 36
2020-09-02 22:00:00 21.9 4 Noroeste 7 Norte 0 -- -- 31
2020-09-02 21:00:00 26.2 0 Calma 21 Oeste 0 -- -- 30
2020-09-02 20:00:00 30.6 13 Oeste 27 Sudoeste 0 -- -- 20
2020-09-02 19:00:00 32.2 7 Sudoeste 21 Sudoeste 0 -- -- 19
2020-09-02 18:00:00 32.5 9 Sudoeste 20 Sudoeste 0 -- -- 19
2020-09-02 17:00:00 32.5 8 Sudeste 21 Sudeste 0 -- -- 18
2020-09-02 16:00:00 31.9 4 Sudoeste 22 Sudeste 0 -- -- 17
2020-09-02 15:00:00 31.2 6 Sur 24 Este 0 -- -- 19
2020-09-02 14:00:00 30 9 Sur 25 Sudeste 0 -- -- 20
2020-09-02 13:00:00 28.6 10 Este 22 Este 0 -- -- 23
2020-09-02 12:00:00 25.6 7 Este 12 Este 0 -- -- 30
2020-09-02 11:00:00 22 3 Sudeste 7 Este 0 -- -- 37
2020-09-02 10:00:00 16.5 0 Calma 5 Norte 0 -- -- 51
2020-09-02 09:00:00 10.6 3 Norte 5 Norte 0 -- -- 67
2020-09-02 08:00:00 10 3 Norte 5 Norte 0 -- -- 68
2020-09-02 07:00:00 11.2 3 Noroeste 5 Norte 0 -- -- 65
2020-09-02 06:00:00 12.2 3 Norte 6 Norte 0 -- -- 64
2020-09-02 05:00:00 14.2 5 Norte 11 Norte 0 -- -- 57
2020-09-02 04:00:00 16.4 6 Norte 12 Norte 0 -- -- 53
2020-09-02 03:00:00 17.4 5 Noroeste 18 Oeste 0 -- -- 50
2020-09-02 02:00:00 18.5 5 Noroeste 17 Sudoeste 0 -- -- 49
2020-09-02 01:00:00 20 10 Oeste 35 Oeste 0 -- -- 43
2020-09-02 00:00:00 19.1 9 Oeste 20 Oeste 0 -- -- 45
2020-09-01 23:00:00 18.3 5 Noroeste 10 Norte 0 -- -- 39
2020-09-01 22:00:00 20.3 5 Noroeste 10 Norte 0 -- -- 33
2020-09-01 21:00:00 24 4 Noroeste 13 Oeste 0 -- -- 27
2020-09-01 20:00:00 29.2 7 Noroeste 19 Oeste 0 -- -- 22
2020-09-01 19:00:00 30 10 Oeste 24 Oeste 0 -- -- 21
2020-09-01 18:00:00 30.4 12 Oeste 27 Oeste 0 -- -- 22
2020-09-01 17:00:00 30.2 11 Oeste 30 Noroeste 0 -- -- 18
2020-09-01 16:00:00 30.3 12 Noroeste 32 Oeste 0 -- -- 16
2020-09-01 15:00:00 28.5 9 Oeste 22 Oeste 0 -- -- 21
2020-09-01 14:00:00 28.3 10 Sudoeste 23 Este 0 -- -- 21
2020-09-01 13:00:00 26.4 4 Oeste 18 Este 0 -- -- 24
2020-09-01 12:00:00 24 5 Este 9 Este 0 -- -- 25
2020-09-01 11:00:00 20 6 Este 12 Este 0 -- -- 34
2020-09-01 10:00:00 16 0 Calma 5 Sudeste 0 -- -- 47
2020-09-01 09:00:00 12.5 0 Calma 7 Norte 0 -- -- 54
2020-09-01 08:00:00 11.2 2 Sudoeste 7 Noroeste 0 -- -- 62
2020-09-01 07:00:00 12.1 0 Calma 7 Oeste 0 -- -- 58
2020-09-01 06:00:00 12.5 2 Sudeste 7 Norte 0 -- -- 56
2020-09-01 05:00:00 13.4 3 Norte 8 Norte 0 -- -- 48
2020-09-01 04:00:00 12.7 3 Noroeste 6 Noroeste 0 -- -- 51
2020-09-01 03:00:00 12.7 0 Calma 5 Noroeste 0 -- -- 51
2020-09-01 02:00:00 12.4 2 Este 4 Noroeste 0 -- -- 55
2020-09-01 01:00:00 13 2 Noroeste 6 Norte 0 -- -- 47
2020-09-01 00:00:00 14.5 3 Norte 6 Nordeste 0 -- -- 44
2020-08-31 23:00:00 16.3 3 Noroeste 8 Norte 0 -- -- 40
2020-08-31 22:00:00 18.7 2 Noroeste 6 Norte 0 -- -- 37
2020-08-31 21:00:00 22.4 3 Sudoeste 16 Este 0 -- -- 30
2020-08-31 20:00:00 26.4 13 Este 23 Este 0 -- -- 22
2020-08-31 19:00:00 27.4 8 Este 28 Este 0 -- -- 22
2020-08-31 18:00:00 27.2 15 Este 24 Este 0 -- -- 21
2020-08-31 17:00:00 27.3 4 Sudoeste 22 Oeste 0 -- -- 22
2020-08-31 16:00:00 26.8 8 Sur 22 Sur 0 -- -- 23
2020-08-31 15:00:00 26.4 8 Sur 21 Oeste 0 -- -- 25
2020-08-31 14:00:00 25.1 6 Este 23 Oeste 0 -- -- 25
2020-08-31 13:00:00 24.4 8 Sur 24 Sudeste 0 -- -- 27
2020-08-31 12:00:00 22.5 5 Este 9 Nordeste 0 -- -- 30
2020-08-31 11:00:00 18.4 3 Este 6 Este 0 -- -- 39
2020-08-31 10:00:00 13.1 0 Calma 3 Norte 0 -- -- 54
2020-08-31 09:00:00 6.5 0 Calma 3 Nordeste 0 -- -- 75
2020-08-31 08:00:00 4.9 0 Calma 2 Norte 0 -- -- 79
2020-08-31 07:00:00 5.9 2 Norte 5 Norte 0 -- -- 74
2020-08-31 06:00:00 6.4 2 Norte 3 Norte 0 -- -- 72
2020-08-31 05:00:00 7.2 0 Calma 4 Norte 0 -- -- 69
2020-08-31 04:00:00 8.4 3 Noroeste 7 Norte 0 -- -- 64
2020-08-31 03:00:00 9.7 3 Noroeste 9 Noroeste 0 -- -- 57
2020-08-31 02:00:00 11.2 3 Noroeste 9 Noroeste 0 -- -- 52
2020-08-31 01:00:00 12 4 Noroeste 9 Norte 0 -- -- 49
2020-08-31 00:00:00 13.5 3 Norte 11 Oeste 0 -- -- 46
2020-08-30 23:00:00 15.7 4 Noroeste 14 Este 0 -- -- 41
2020-08-30 22:00:00 17.8 4 Norte 8 Norte 0 -- -- 39
2020-08-30 21:00:00 21.1 5 Nordeste 17 Nordeste 0 -- -- 30
2020-08-30 20:00:00 23.8 6 Nordeste 20 Norte 0 -- -- 24
2020-08-30 19:00:00 25.3 8 Noroeste 35 Este 0 -- -- 23
2020-08-30 18:00:00 25.8 6 Sudeste 21 Sudeste 0 -- -- 24
2020-08-30 17:00:00 25.8 4 Sudoeste 19 Este 0 -- -- 25
2020-08-30 16:00:00 25.1 8 Este 32 Este 0 -- -- 26
2020-08-30 15:00:00 24.2 5 Este 18 Este 0 -- -- 27
2020-08-30 14:00:00 23.3 12 Este 22 Este 0 -- -- 29
2020-08-30 13:00:00 22.6 9 Sudeste 21 Este 0 -- -- 30
2020-08-30 12:00:00 20.6 5 Sur 18 Sudeste 0 -- -- 36
2020-08-30 11:00:00 17.7 4 Sudoeste 9 Noroeste 0 -- -- 43
2020-08-30 10:00:00 14.7 3 Norte 5 Noroeste 0 -- -- 58
2020-08-30 09:00:00 8.5 2 Este 6 Norte 0 -- -- 80
2020-08-30 08:00:00 7.6 2 Noroeste 5 Norte 0 -- -- 80
2020-08-30 07:00:00 8.5 0 Calma 5 Norte 0 -- -- 76
2020-08-30 06:00:00 10.1 3 Noroeste 10 Noroeste 0 -- -- 70
2020-08-30 05:00:00 11.4 4 Noroeste 13 Sudoeste 0 -- -- 65
2020-08-30 04:00:00 12.7 5 Oeste 11 Oeste 0 -- -- 61
2020-08-30 03:00:00 13.2 3 Nordeste 8 Nordeste 0 -- -- 64
2020-08-30 02:00:00 13.7 5 Este 11 Este 0 -- -- 59
2020-08-30 01:00:00 14.5 2 Noroeste 5 Oeste 0 -- -- 62
2020-08-30 00:00:00 16.6 0 Calma 16 Nordeste 0 -- -- 51
2020-08-29 23:00:00 17.3 4 Norte 11 Oeste 0 -- -- 46
2020-08-29 22:00:00 17.6 3 Noroeste 10 Noroeste 0 -- -- 45
2020-08-29 21:00:00 20.6 4 Oeste 16 Noroeste 0 -- -- 37
2020-08-29 20:00:00 22.8 8 Noroeste 25 Noroeste 0 -- -- 32
2020-08-29 19:00:00 22.4 11 Noroeste 30 Oeste 0 -- -- 35
2020-08-29 18:00:00 22.7 9 Norte 28 Noroeste 0 -- -- 33
2020-08-29 17:00:00 24.2 8 Noroeste 27 Nordeste 0 -- -- 28
2020-08-29 16:00:00 24.5 11 Norte 24 Noroeste 0 -- -- 29
2020-08-29 15:00:00 23.6 14 Norte 32 Norte 0 -- -- 31
2020-08-29 14:00:00 22.6 8 Norte 28 Nordeste 0 -- -- 33
2020-08-29 13:00:00 21.2 8 Norte 25 Nordeste 0 -- -- 38
2020-08-29 12:00:00 20 7 Noroeste 23 Noroeste 0 -- -- 41
2020-08-29 11:00:00 17.3 12 Oeste 31 Oeste 0 -- -- 50
2020-08-29 10:00:00 15.3 17 Oeste 38 Oeste 0 -- -- 57
2020-08-29 09:00:00 13.6 19 Oeste 35 Oeste 0 -- -- 60
2020-08-29 08:00:00 12.9 20 Oeste 35 Oeste 0 -- -- 61
2020-08-29 07:00:00 13.7 17 Oeste 32 Oeste 0 -- -- 57
2020-08-29 06:00:00 14.5 10 Oeste 37 Oeste 0 -- -- 54
2020-08-29 05:00:00 14.8 16 Oeste 36 Oeste 0 -- -- 53
2020-08-29 04:00:00 15.4 10 Oeste 42 Oeste 0 -- -- 51
2020-08-29 03:00:00 16.3 12 Oeste 32 Oeste 0 -- -- 49
2020-08-29 02:00:00 17.2 8 Oeste 28 Oeste 0 -- -- 44
2020-08-29 01:00:00 18.2 15 Oeste 36 Oeste 0 -- -- 45
2020-08-29 00:00:00 19.6 14 Noroeste 39 Norte 0 -- -- 42
2020-08-28 23:00:00 21 13 Oeste 31 Oeste 0 -- -- 39
2020-08-28 22:00:00 22.2 5 Noroeste 23 Norte 0 -- -- 37
2020-08-28 21:00:00 24.2 5 Norte 32 Sudoeste 0 -- -- 33
2020-08-28 20:00:00 26.5 19 Oeste 33 Sudoeste 0 -- -- 27
2020-08-28 19:00:00 27.6 19 Oeste 33 Sudoeste 0 -- -- 28
2020-08-28 18:00:00 28.6 15 Oeste 41 Oeste 0 -- -- 27
2020-08-28 17:00:00 29 14 Noroeste 41 Sudoeste 0 -- -- 25
2020-08-28 16:00:00 28.6 13 Oeste 40 Oeste 0 -- -- 25
2020-08-28 15:00:00 27.8 20 Oeste 41 Oeste 0 -- -- 24
2020-08-28 14:00:00 26.7 21 Sudoeste 37 Sudoeste 0 -- -- 34
2020-08-28 13:00:00 25.2 23 Sudoeste 42 Sudoeste 0 -- -- 42
2020-08-28 12:00:00 24 18 Oeste 33 Oeste 0 -- -- 48
2020-08-28 11:00:00 22.3 16 Sudoeste 36 Sudoeste 0 -- -- 56
2020-08-28 10:00:00 21.1 17 Sudoeste 32 Oeste 0 -- -- 67
2020-08-28 09:00:00 20.1 12 Sudoeste 27 Sudoeste 0 -- -- 71
2020-08-28 08:00:00 19.9 10 Oeste 26 Sudoeste 0 -- -- 72
2020-08-28 07:00:00 20.3 10 Sudoeste 27 Oeste 0 -- -- 71
2020-08-28 06:00:00 20.5 9 Sudoeste 29 Sur 0 -- -- 71
2020-08-28 05:00:00 21.1 15 Sudoeste 36 Oeste 0 -- -- 68
2020-08-28 04:00:00 21.8 10 Sudoeste 29 Sudoeste 0 -- -- 68
2020-08-28 03:00:00 23 4 Este 21 Sur 0 -- -- 64
2020-08-28 02:00:00 24.2 6 Sudoeste 26 Sudoeste 0 -- -- 60
2020-08-28 01:00:00 25.2 8 Oeste 21 Oeste 0 -- -- 56
2020-08-28 00:00:00 26.6 8 Noroeste 25 Norte 0 -- -- 51